Sample Charts Sidebar
> Live data! Your data is on the web site for you to access within minutes
 
> Detailed data is easily downloaded as data file, which can be opened with Excel
 
> Charts can be customised if necessary
  Chart 1
 

(A maximum of 50 rows are displayed here. Use "Export Data" to see all rows in the date range.)
Date Collected Temperature
(Celcius)
Wind-chill
(Celcius)
Wind Speed
(km/hr)
Gust
(km/hr)
Wind Direction
(degrees)
2020-07-12 12:00 16.1 14.4 5 10 46
2020-07-12 11:00 14.0 12.7 4 10 46
2020-07-12 10:00 12.5 10.8 5 9 51
2020-07-12 09:00 10.5 6.7 6 11 42
2020-07-12 08:00 9.0 5.7 6 13 47
2020-07-12 07:00 8.6 7.0 4 9 54
2020-07-12 06:00 8.5 7.2 4 8 57
2020-07-12 05:00 8.8 7.7 4 8 51
2020-07-12 04:00 9.4 7.5 4 10 42
2020-07-12 03:00 9.2 8.8 3 6 41
2020-07-12 02:00 9.7 9.7 2 5 47
2020-07-12 01:00 10.9 10.9 2 5 56
2020-07-12 00:00 11.8 11.8 2 5 56
2020-07-11 23:00 12.1 12.1 2 5 68
2020-07-11 22:00 12.2 12.1 2 5 69
2020-07-11 21:00 11.8 11.9 2 5 51
2020-07-11 20:00 11.7 11.7 2 4 37
2020-07-11 19:00 12.7 12.8 0 1 0
2020-07-11 18:00 14.2 14.3 0 1 293
2020-07-11 17:00 16.1 16.2 1 1 270
2020-07-11 16:00 16.9 17.1 2 5 243
2020-07-11 15:00 17.3 16.9 3 7 248
2020-07-11 14:00 17.5 17.4 3 5 238
2020-07-11 13:00 17.3 16.9 3 7 252
2020-07-11 12:00 18.2 17.8 2 5 208
2020-07-11 11:00 15.5 15.5 2 5 19
2020-07-11 10:00 13.2 12.2 4 6 52
2020-07-11 09:00 8.4 7.7 3 6 46
2020-07-11 08:00 7.3 6.8 3 6 60
2020-07-11 07:00 7.3 6.9 2 5 55
2020-07-11 06:00 7.0 6.6 3 6 51
2020-07-11 05:00 7.2 6.1 4 8 42
2020-07-11 04:00 7.4 7.0 3 6 56
2020-07-11 03:00 7.7 6.5 4 7 63
2020-07-11 02:00 7.8 7.7 2 5 69
2020-07-11 01:00 7.6 7.5 2 6 71
2020-07-11 00:00 7.2 7.3 1 2 28
2020-07-10 23:00 8.3 8.3 1 3 44
2020-07-10 22:00 9.9 10.0 1 2 1
2020-07-10 21:00 11.9 12.0 0 2 53
2020-07-10 20:00 12.9 12.8 2 5 117
2020-07-10 19:00 13.1 13.2 1 2 103
2020-07-10 18:00 14.5 14.5 1 3 109
2020-07-10 17:00 15.3 15.2 2 6 167
2020-07-10 16:00 16.0 15.6 3 6 155
2020-07-10 15:00 16.6 16.5 2 5 119
2020-07-10 14:00 16.4 15.8 2 11 70
2020-07-10 13:00 16.2 15.8 2 6 151
2020-07-10 12:00 15.3 14.6 3 8 132
2020-07-10 11:00 13.0 12.9 1 4 289